Time;durP1;ratioP1;P1;durP2;ratioP2;P2;SDS_P1;SDS_P2;PMS_P1;PMS_P2;Temp;Humidity;BMP_temperature;BMP_pressure;BME280_temperature;BME280_humidity;BME280_pressure;Samples;Min_cycle;Max_cycle;Signal;HPM_P1;HPM_P2
2023/03/04 00:00:07;;;;;;;8.73;3.90;;;17.30;49.30;;;;;;5047603;28;20482;-80
2023/03/04 00:02:37;;;;;;;8.67;3.87;;;17.30;49.30;;;;;;5049494;28;20459;-81
2023/03/04 00:05:06;;;;;;;6.90;4.10;;;17.30;49.40;;;;;;5044138;28;20471;-80
2023/03/04 00:07:35;;;;;;;9.27;4.03;;;17.30;49.40;;;;;;5049248;28;20455;-81
2023/03/04 00:10:03;;;;;;;8.27;4.03;;;17.30;49.50;;;;;;5049125;28;20450;-80
2023/03/04 00:12:31;;;;;;;8.43;4.20;;;17.30;49.50;;;;;;5052514;28;20471;-82
2023/03/04 00:14:59;;;;;;;8.10;3.70;;;17.30;49.50;;;;;;5054845;28;20565;-80
2023/03/04 00:17:31;;;;;;;7.73;4.30;;;17.30;49.60;;;;;;5050227;28;20534;-80
2023/03/04 00:19:59;;;;;;;9.83;4.20;;;17.30;49.60;;;;;;5046218;28;20513;-80
2023/03/04 00:22:28;;;;;;;5.13;3.70;;;17.30;49.70;;;;;;5043932;28;20482;-81
2023/03/04 00:24:55;;;;;;;8.70;4.13;;;17.30;49.70;;;;;;5045156;28;20474;-80
2023/03/04 00:27:23;;;;;;;6.67;3.90;;;17.30;49.80;;;;;;5047647;28;20475;-81
2023/03/04 00:29:52;;;;;;;10.47;4.97;;;17.30;49.80;;;;;;5042789;28;20454;-81
2023/03/04 00:32:20;;;;;;;11.13;4.57;;;17.20;49.60;;;;;;5048886;28;20457;-81
2023/03/04 00:34:49;;;;;;;10.90;4.47;;;17.30;49.70;;;;;;5049583;28;20556;-81
2023/03/04 00:37:20;;;;;;;8.80;3.93;;;17.30;49.80;;;;;;5054024;28;20478;-80
2023/03/04 00:39:48;;;;;;;11.10;4.53;;;17.30;49.90;;;;;;5048578;28;20483;-80
2023/03/04 00:42:21;;;;;;;8.30;4.50;;;17.20;49.80;;;;;;5048399;28;20499;-80
2023/03/04 00:44:50;;;;;;;11.70;4.43;;;17.30;50.00;;;;;;5046405;28;20474;-80
2023/03/04 00:47:18;;;;;;;12.17;4.87;;;17.20;50.10;;;;;;5039601;28;20454;-78
2023/03/04 00:49:46;;;;;;;14.17;4.63;;;17.40;51.40;;;;;;5051914;28;20434;-80
2023/03/04 00:52:15;;;;;;;15.93;5.27;;;17.50;51.50;;;;;;5037324;28;20446;-79
2023/03/04 00:54:43;;;;;;;13.53;5.07;;;17.50;51.50;;;;;;5044218;28;20473;-78
2023/03/04 00:57:12;;;;;;;10.53;5.00;;;17.50;51.60;;;;;;5034966;28;20471;-80
2023/03/04 00:59:42;;;;;;;9.47;5.00;;;17.50;51.90;;;;;;5039204;28;20471;-79
2023/03/04 01:02:10;;;;;;;6.67;4.27;;;17.50;51.90;;;;;;5041316;28;20452;-79
2023/03/04 01:04:40;;;;;;;9.17;5.10;;;17.50;52.10;;;;;;5043396;28;20686;-77
2023/03/04 01:07:09;;;;;;;13.20;4.03;;;17.50;52.20;;;;;;5035815;28;20461;-79
2023/03/04 01:09:38;;;;;;;10.57;4.20;;;17.50;52.20;;;;;;5043661;28;20451;-79
2023/03/04 01:12:07;;;;;;;12.63;4.70;;;17.50;52.40;;;;;;5046642;28;20479;-80
2023/03/04 01:14:35;;;;;;;11.50;4.27;;;17.50;52.30;;;;;;5037326;28;20476;-79
2023/03/04 01:17:03;;;;;;;9.47;4.80;;;17.50;52.30;;;;;;5042942;28;20442;-79
2023/03/04 01:19:31;;;;;;;10.23;4.50;;;17.50;52.40;;;;;;5037473;28;20477;-80
2023/03/04 01:21:59;;;;;;;7.83;4.27;;;17.50;52.50;;;;;;5046822;28;20462;-80
2023/03/04 01:24:28;;;;;;;11.50;4.63;;;17.60;52.40;;;;;;5043770;28;20461;-82
2023/03/04 01:26:57;;;;;;;11.73;5.17;;;17.60;52.40;;;;;;5041193;28;20479;-79
2023/03/04 01:29:26;;;;;;;12.87;4.60;;;17.60;52.60;;;;;;5042665;28;20462;-79
2023/03/04 01:31:56;;;;;;;14.50;4.40;;;17.50;52.50;;;;;;5042045;28;20561;-80
2023/03/04 01:34:25;;;;;;;10.30;4.50;;;17.50;52.50;;;;;;5045574;28;20471;-80
2023/03/04 01:36:53;;;;;;;13.03;4.43;;;17.50;52.60;;;;;;5046475;28;20501;-79
2023/03/04 01:39:21;;;;;;;8.87;4.17;;;17.50;52.50;;;;;;5040593;28;20464;-80
2023/03/04 01:41:49;;;;;;;7.93;3.60;;;17.50;52.50;;;;;;5036390;28;20475;-79
2023/03/04 01:44:18;;;;;;;7.10;4.40;;;17.50;52.40;;;;;;5038877;28;20475;-80
2023/03/04 01:46:48;;;;;;;9.50;4.47;;;17.50;52.50;;;;;;5035621;28;20452;-80
2023/03/04 01:49:16;;;;;;;7.83;4.20;;;17.50;52.70;;;;;;5037333;28;20455;-79
2023/03/04 01:51:46;;;;;;;7.47;3.80;;;17.50;52.70;;;;;;5038093;28;20455;-80
2023/03/04 01:54:14;;;;;;;9.50;4.87;;;17.50;52.60;;;;;;5037640;28;20476;-80
2023/03/04 01:56:42;;;;;;;14.83;5.27;;;17.50;52.60;;;;;;5037433;28;20505;-79
2023/03/04 01:59:12;;;;;;;8.83;4.00;;;17.50;52.70;;;;;;5039494;28;20447;-79
2023/03/04 02:01:42;;;;;;;6.27;4.00;;;17.50;52.70;;;;;;5044718;28;20475;-79
2023/03/04 02:04:11;;;;;;;7.27;4.03;;;17.50;52.50;;;;;;5038439;28;20505;-80
2023/03/04 02:06:39;;;;;;;10.50;4.30;;;17.50;52.60;;;;;;5035000;28;20463;-79
2023/03/04 02:09:08;;;;;;;12.30;4.20;;;17.50;52.70;;;;;;5041150;28;20966;-80
2023/03/04 02:11:36;;;;;;;6.40;3.80;;;17.40;52.60;;;;;;5041823;28;20467;-78
2023/03/04 02:14:04;;;;;;;11.73;4.30;;;17.40;52.60;;;;;;5041659;28;20471;-79
2023/03/04 02:16:33;;;;;;;9.60;3.73;;;17.50;52.80;;;;;;5038656;28;20447;-79
2023/03/04 02:19:02;;;;;;;7.97;3.80;;;17.40;52.60;;;;;;5038264;28;20456;-79
2023/03/04 02:21:31;;;;;;;10.50;3.90;;;17.50;52.70;;;;;;5038775;28;20475;-79
2023/03/04 02:24:04;;;;;;;5.60;3.63;;;17.50;52.80;;;;;;5037419;28;20482;-79
2023/03/04 02:26:34;;;;;;;6.90;3.90;;;17.50;52.70;;;;;;5043989;28;20476;-79
2023/03/04 02:29:03;;;;;;;9.13;3.97;;;17.50;52.50;;;;;;5041593;28;20447;-80
2023/03/04 02:31:33;;;;;;;7.20;3.80;;;17.40;52.60;;;;;;5037323;28;20494;-77
2023/03/04 02:34:02;;;;;;;6.00;3.90;;;17.50;52.70;;;;;;5038666;28;20533;-79
2023/03/04 02:36:30;;;;;;;7.80;3.73;;;17.40;52.70;;;;;;5039645;28;20462;-78
2023/03/04 02:39:02;;;;;;;6.73;3.30;;;17.40;52.70;;;;;;5036990;28;20479;-79
2023/03/04 02:41:30;;;;;;;6.20;3.37;;;17.40;52.60;;;;;;5037156;28;20581;-79
2023/03/04 02:43:59;;;;;;;9.10;4.40;;;17.40;52.70;;;;;;5038655;28;20471;-79
2023/03/04 02:46:27;;;;;;;5.57;3.43;;;17.40;52.70;;;;;;5044566;28;20474;-79
2023/03/04 02:48:55;;;;;;;5.70;3.27;;;17.40;52.60;;;;;;5047522;28;20553;-79
2023/03/04 02:51:23;;;;;;;7.77;3.73;;;17.40;52.60;;;;;;5042374;28;20465;-79
2023/03/04 02:53:52;;;;;;;7.43;3.80;;;17.40;52.50;;;;;;5044959;28;20994;-79
2023/03/04 02:56:20;;;;;;;7.33;3.70;;;17.40;52.50;;;;;;5044034;28;20470;-80
2023/03/04 02:58:48;;;;;;;6.60;3.43;;;17.30;52.60;;;;;;5042263;28;20467;-79
2023/03/04 03:01:17;;;;;;;4.50;3.23;;;17.40;52.60;;;;;;5040805;28;20470;-80
2023/03/04 03:03:45;;;;;;;5.03;3.07;;;17.40;52.70;;;;;;5041616;28;20455;-79
2023/03/04 03:06:14;;;;;;;8.70;4.00;;;17.40;52.60;;;;;;5037159;28;20569;-80
2023/03/04 03:08:42;;;;;;;4.03;3.00;;;17.40;52.50;;;;;;5047549;28;20455;-79
2023/03/04 03:11:10;;;;;;;7.30;3.57;;;17.40;52.60;;;;;;5041252;28;20477;-79
2023/03/04 03:13:38;;;;;;;4.40;3.07;;;17.30;52.50;;;;;;5039941;28;20486;-78
2023/03/04 03:16:06;;;;;;;4.17;3.20;;;17.40;52.40;;;;;;5040106;28;20451;-79
2023/03/04 03:18:36;;;;;;;5.47;2.87;;;17.40;52.30;;;;;;5042414;28;20443;-79
2023/03/04 03:21:04;;;;;;;5.63;3.03;;;17.30;52.30;;;;;;5043664;28;20467;-80
2023/03/04 03:23:33;;;;;;;9.93;3.23;;;17.30;52.30;;;;;;5037389;28;20455;-79
2023/03/04 03:26:01;;;;;;;6.30;3.63;;;17.30;52.30;;;;;;5043079;28;20471;-79
2023/03/04 03:28:28;;;;;;;4.10;3.27;;;17.30;52.20;;;;;;5042793;28;20445;-79
2023/03/04 03:30:56;;;;;;;8.57;3.60;;;17.20;52.30;;;;;;5041141;28;20451;-79
2023/03/04 03:33:24;;;;;;;9.37;2.90;;;17.30;52.40;;;;;;5042422;28;20450;-80
2023/03/04 03:35:53;;;;;;;8.37;3.30;;;17.30;52.30;;;;;;5043274;28;20472;-80
2023/03/04 03:38:22;;;;;;;6.60;3.10;;;17.30;52.30;;;;;;5043132;28;20447;-80
2023/03/04 03:40:49;;;;;;;5.17;3.10;;;17.30;52.30;;;;;;5050193;28;20474;-79
2023/03/04 03:43:17;;;;;;;6.90;3.03;;;17.20;52.10;;;;;;5039314;28;20459;-79
2023/03/04 03:45:45;;;;;;;7.67;3.10;;;17.30;52.30;;;;;;5040064;28;20467;-80
2023/03/04 03:48:13;;;;;;;6.20;2.53;;;17.20;52.00;;;;;;5045355;28;20427;-79
2023/03/04 03:50:41;;;;;;;7.67;3.10;;;17.20;52.20;;;;;;5057108;28;20511;-79
2023/03/04 03:53:10;;;;;;;5.97;2.70;;;17.20;52.10;;;;;;5052995;28;20452;-79
2023/03/04 03:55:38;;;;;;;5.43;3.00;;;17.20;52.20;;;;;;5054405;28;20491;-79
2023/03/04 03:58:06;;;;;;;5.43;2.33;;;17.20;52.20;;;;;;5054948;28;20451;-79
2023/03/04 04:00:35;;;;;;;6.93;2.77;;;17.20;52.20;;;;;;5048600;28;20461;-80
2023/03/04 04:03:03;;;;;;;15.10;3.10;;;17.20;52.20;;;;;;5055328;28;20527;-79
2023/03/04 04:05:31;;;;;;;5.80;2.57;;;17.20;52.20;;;;;;5057530;28;20474;-78
2023/03/04 04:07:59;;;;;;;6.93;2.90;;;17.10;52.00;;;;;;5054024;28;20439;-79
2023/03/04 04:10:28;;;;;;;7.20;2.90;;;17.10;52.10;;;;;;5052466;28;20451;-80
2023/03/04 04:12:56;;;;;;;8.10;3.23;;;17.20;52.20;;;;;;5049793;28;20481;-79
2023/03/04 04:15:23;;;;;;;7.60;2.57;;;17.10;52.00;;;;;;5038779;28;20469;-79
2023/03/04 04:17:52;;;;;;;8.67;3.23;;;17.10;51.90;;;;;;5047667;28;20463;-79
2023/03/04 04:20:19;;;;;;;5.90;3.17;;;17.10;52.10;;;;;;5039752;28;20451;-79
2023/03/04 04:22:48;;;;;;;4.00;2.57;;;17.10;52.10;;;;;;5039685;28;20471;-80
2023/03/04 04:25:16;;;;;;;4.70;2.27;;;17.10;52.10;;;;;;5039162;28;20482;-79
2023/03/04 04:27:46;;;;;;;6.90;2.23;;;17.10;52.10;;;;;;5037520;28;20485;-79
2023/03/04 04:30:14;;;;;;;5.87;2.40;;;17.10;52.10;;;;;;5040448;28;20455;-80
2023/03/04 04:32:42;;;;;;;6.37;2.60;;;17.10;52.10;;;;;;5040863;28;20451;-79
2023/03/04 04:35:10;;;;;;;4.33;2.67;;;17.10;52.10;;;;;;5048822;28;20475;-80
2023/03/04 04:37:38;;;;;;;4.70;2.57;;;17.10;52.20;;;;;;5043093;28;20503;-79
2023/03/04 04:40:07;;;;;;;3.37;2.00;;;17.10;52.00;;;;;;5044070;28;20451;-79
2023/03/04 04:42:35;;;;;;;5.37;2.47;;;17.00;52.10;;;;;;5044483;28;20471;-80
2023/03/04 04:45:05;;;;;;;5.57;2.77;;;17.00;52.00;;;;;;5041697;28;20573;-80
2023/03/04 04:47:32;;;;;;;5.67;2.73;;;17.00;52.00;;;;;;5045174;28;20450;-79
2023/03/04 04:50:00;;;;;;;3.87;2.20;;;17.00;52.20;;;;;;5044434;28;20453;-79
2023/03/04 04:52:28;;;;;;;3.03;2.03;;;17.00;52.20;;;;;;5044505;28;20837;-79
2023/03/04 04:54:56;;;;;;;6.53;2.90;;;17.00;52.20;;;;;;5041000;28;20485;-79
2023/03/04 04:57:24;;;;;;;5.27;2.30;;;17.00;52.10;;;;;;5046007;28;20478;-81
2023/03/04 04:59:53;;;;;;;3.97;2.43;;;17.00;52.20;;;;;;5040160;28;20454;-80
2023/03/04 05:02:22;;;;;;;4.33;2.20;;;16.90;52.00;;;;;;5039420;28;20466;-80
2023/03/04 05:04:50;;;;;;;3.93;2.00;;;17.00;52.00;;;;;;5043138;28;21004;-80
2023/03/04 05:07:18;;;;;;;6.17;2.63;;;17.00;52.10;;;;;;5045087;28;20447;-80
2023/03/04 05:09:46;;;;;;;4.30;2.00;;;17.00;52.10;;;;;;5039857;28;20451;-80
2023/03/04 05:12:14;;;;;;;4.57;2.00;;;16.90;52.10;;;;;;5041308;28;20470;-80
2023/03/04 05:14:42;;;;;;;3.33;2.07;;;16.90;52.00;;;;;;5036641;28;20485;-80
2023/03/04 05:17:10;;;;;;;4.57;2.30;;;16.90;51.90;;;;;;5043395;28;20448;-80
2023/03/04 05:19:40;;;;;;;3.20;2.20;;;16.90;52.00;;;;;;5041501;28;20492;-80
2023/03/04 05:22:08;;;;;;;3.53;2.47;;;16.90;52.60;;;;;;5043462;28;20471;-80
2023/03/04 05:24:35;;;;;;;3.60;2.20;;;16.90;52.00;;;;;;5038768;28;20487;-80
2023/03/04 05:27:03;;;;;;;5.37;2.30;;;16.90;52.00;;;;;;5041093;28;20475;-79
2023/03/04 05:29:31;;;;;;;3.40;2.10;;;16.90;52.00;;;;;;5041262;28;20450;-80
2023/03/04 05:31:59;;;;;;;3.00;2.47;;;16.90;52.00;;;;;;5046993;28;20447;-80
2023/03/04 05:34:28;;;;;;;4.00;2.37;;;16.90;52.00;;;;;;5040068;28;20557;-80
2023/03/04 05:36:57;;;;;;;4.10;2.20;;;16.90;51.90;;;;;;5034892;28;20570;-80
2023/03/04 05:39:25;;;;;;;4.10;2.17;;;16.90;51.90;;;;;;5040400;28;20446;-80
2023/03/04 05:41:53;;;;;;;2.50;2.30;;;16.90;52.00;;;;;;5038428;28;20488;-79
2023/03/04 05:44:21;;;;;;;4.57;2.17;;;16.90;52.00;;;;;;5040606;28;20467;-79
2023/03/04 05:46:49;;;;;;;3.73;1.93;;;16.90;52.00;;;;;;5041082;28;20466;-79
2023/03/04 05:49:17;;;;;;;2.77;2.20;;;16.90;51.90;;;;;;5040636;28;20458;-80
2023/03/04 05:51:45;;;;;;;4.00;2.03;;;16.90;51.90;;;;;;5042067;28;20462;-79
2023/03/04 05:54:15;;;;;;;2.83;1.90;;;16.90;52.00;;;;;;5040018;28;20471;-80
2023/03/04 05:56:43;;;;;;;2.57;2.00;;;16.90;52.00;;;;;;5037659;28;20498;-80
2023/03/04 05:59:11;;;;;;;4.37;2.10;;;16.90;52.00;;;;;;5045910;28;20451;-80
2023/03/04 06:01:39;;;;;;;3.67;2.20;;;16.90;52.00;;;;;;5041240;28;20471;-79
2023/03/04 06:04:07;;;;;;;3.53;1.60;;;16.90;52.00;;;;;;5041128;28;20471;-80
2023/03/04 06:06:35;;;;;;;2.63;2.07;;;16.80;52.00;;;;;;5047374;28;20451;-80
2023/03/04 06:09:03;;;;;;;3.13;1.90;;;16.80;52.00;;;;;;5045255;28;20454;-78
2023/03/04 06:11:33;;;;;;;2.73;2.07;;;16.90;52.00;;;;;;5043815;28;20484;-79
2023/03/04 06:14:03;;;;;;;3.67;2.00;;;16.80;51.80;;;;;;5041391;28;20467;-80
2023/03/04 06:16:31;;;;;;;2.90;1.53;;;16.90;51.90;;;;;;5043862;28;20538;-78
2023/03/04 06:18:59;;;;;;;4.90;1.80;;;16.90;51.80;;;;;;5040629;28;20453;-80
2023/03/04 06:21:27;;;;;;;4.50;2.37;;;16.90;51.90;;;;;;5043812;28;20471;-80
2023/03/04 06:23:55;;;;;;;4.77;2.23;;;16.90;51.90;;;;;;5049358;28;20498;-80
2023/03/04 06:26:23;;;;;;;4.90;1.80;;;16.90;51.80;;;;;;5045353;28;20478;-80
2023/03/04 06:28:55;;;;;;;6.83;2.37;;;16.90;51.90;;;;;;5045050;28;20477;-80
2023/03/04 06:31:23;;;;;;;3.60;1.83;;;16.90;51.80;;;;;;5041027;28;20462;-80
2023/03/04 06:33:52;;;;;;;4.07;2.03;;;16.90;51.80;;;;;;5044078;28;20557;-80
2023/03/04 06:36:20;;;;;;;2.43;1.90;;;16.90;51.70;;;;;;5042939;28;20465;-80
2023/03/04 06:38:48;;;;;;;2.90;2.00;;;16.80;51.90;;;;;;5041380;28;20451;-80
2023/03/04 06:41:16;;;;;;;3.30;1.93;;;16.90;52.00;;;;;;5046242;28;20478;-80
2023/03/04 06:43:44;;;;;;;4.13;2.03;;;16.90;52.00;;;;;;5040870;28;20497;-79
2023/03/04 06:46:13;;;;;;;1.60;1.50;;;16.90;52.00;;;;;;5042661;28;20460;-80
2023/03/04 06:48:41;;;;;;;3.53;1.90;;;16.80;52.00;;;;;;5039758;28;20455;-80
2023/03/04 06:51:11;;;;;;;2.20;1.50;;;16.80;51.90;;;;;;5046572;28;20461;-80
2023/03/04 06:53:39;;;;;;;3.10;1.40;;;16.80;52.00;;;;;;5040905;28;20533;-80
2023/03/04 06:56:08;;;;;;;2.50;1.50;;;16.80;52.00;;;;;;5042984;28;20467;-80
2023/03/04 06:58:36;;;;;;;1.80;1.47;;;16.90;52.00;;;;;;5046060;28;20460;-79
2023/03/04 07:01:16;;;;;;;3.63;1.93;;;16.90;52.00;;;;;;5051561;28;20455;-80
2023/03/04 07:03:44;;;;;;;1.77;1.67;;;16.90;52.00;;;;;;5047804;28;20478;-80
2023/03/04 07:06:13;;;;;;;2.17;1.40;;;16.90;51.90;;;;;;5046427;28;20547;-79
2023/03/04 07:08:44;;;;;;;2.63;1.80;;;16.90;51.90;;;;;;5045715;28;20482;-80
2023/03/04 07:11:12;;;;;;;2.87;1.60;;;17.00;51.90;;;;;;5051791;28;20966;-80
2023/03/04 07:13:40;;;;;;;2.60;1.50;;;17.00;51.80;;;;;;5050179;28;20546;-80
2023/03/04 07:16:11;;;;;;;4.53;2.10;;;17.00;51.90;;;;;;5049590;28;20456;-80
2023/03/04 07:18:40;;;;;;;2.47;1.73;;;17.00;51.90;;;;;;5048159;28;20454;-81
2023/03/04 07:21:08;;;;;;;3.37;1.60;;;17.00;51.70;;;;;;5048657;28;20451;-80
2023/03/04 07:23:36;;;;;;;6.40;1.70;;;17.10;51.80;;;;;;5047441;28;20474;-81
2023/03/04 07:26:04;;;;;;;1.90;1.40;;;17.00;51.70;;;;;;5052758;28;20470;-80
2023/03/04 07:28:32;;;;;;;1.83;1.60;;;17.00;51.80;;;;;;5043871;28;20466;-80
2023/03/04 07:31:08;;;;;;;1.57;1.47;;;17.00;51.80;;;;;;5049012;28;20450;-80
2023/03/04 07:33:36;;;;;;;2.30;1.47;;;17.00;51.70;;;;;;5042542;28;20845;-80
2023/03/04 07:36:06;;;;;;;2.17;1.60;;;17.00;51.80;;;;;;5042611;28;20454;-80
2023/03/04 07:38:34;;;;;;;4.30;1.80;;;17.00;51.80;;;;;;5043211;28;20452;-80
2023/03/04 07:41:02;;;;;;;1.93;1.57;;;17.00;51.80;;;;;;5042818;28;20483;-80
2023/03/04 07:43:30;;;;;;;4.40;1.50;;;17.00;51.80;;;;;;5050480;28;20477;-80
2023/03/04 07:46:01;;;;;;;1.73;1.37;;;17.00;51.80;;;;;;5047189;28;20458;-81
2023/03/04 07:48:30;;;;;;;4.10;1.60;;;17.10;51.70;;;;;;5044723;28;20459;-81
2023/03/04 07:51:06;;;;;;;1.67;1.40;;;17.10;51.70;;;;;;5051606;28;20462;-81
2023/03/04 07:53:34;;;;;;;1.33;1.23;;;17.10;51.80;;;;;;5041928;28;20963;-81
2023/03/04 07:56:05;;;;;;;1.83;1.40;;;17.10;51.70;;;;;;5041421;28;20467;-81
2023/03/04 07:58:33;;;;;;;2.60;1.20;;;17.10;51.70;;;;;;5047563;28;20443;-81
2023/03/04 08:01:01;;;;;;;1.90;1.03;;;17.10;51.70;;;;;;5054765;28;20457;-81
2023/03/04 08:03:29;;;;;;;2.40;1.50;;;17.10;51.90;;;;;;5050248;28;20474;-80
2023/03/04 08:05:58;;;;;;;2.47;1.40;;;17.10;51.70;;;;;;5045693;28;20462;-80
2023/03/04 08:08:27;;;;;;;4.60;1.77;;;17.10;51.80;;;;;;5044298;28;20459;-81
2023/03/04 08:10:55;;;;;;;1.90;1.70;;;17.10;51.70;;;;;;5043750;28;20477;-80
2023/03/04 08:13:23;;;;;;;3.27;2.07;;;17.10;51.70;;;;;;5049639;28;20446;-80
2023/03/04 08:15:52;;;;;;;1.80;1.70;;;17.20;51.70;;;;;;5040276;28;20480;-81
2023/03/04 08:18:21;;;;;;;3.10;1.90;;;17.20;51.80;;;;;;5045861;28;20461;-81
2023/03/04 08:20:48;;;;;;;4.23;2.20;;;17.20;51.80;;;;;;5044688;28;20447;-81
2023/03/04 08:23:16;;;;;;;2.07;1.60;;;17.20;51.70;;;;;;5045734;28;20474;-81
2023/03/04 08:25:46;;;;;;;4.00;2.10;;;17.20;51.80;;;;;;5041914;28;20474;-81
2023/03/04 08:28:13;;;;;;;2.03;1.83;;;17.30;51.90;;;;;;5046629;28;20454;-81
2023/03/04 08:30:41;;;;;;;3.37;1.60;;;17.30;51.90;;;;;;5044680;28;20850;-81
2023/03/04 08:33:10;;;;;;;2.23;1.83;;;17.30;51.70;;;;;;5051940;28;20450;-81
2023/03/04 08:35:38;;;;;;;2.40;1.87;;;17.30;51.70;;;;;;5038884;28;20475;-81
2023/03/04 08:38:07;;;;;;;3.10;1.80;;;17.40;51.70;;;;;;5043662;28;20447;-80
2023/03/04 08:40:35;;;;;;;2.13;1.93;;;17.40;51.70;;;;;;5047055;28;20450;-81
2023/03/04 08:43:05;;;;;;;4.87;2.03;;;17.40;51.70;;;;;;5043453;28;20473;-81
2023/03/04 08:45:32;;;;;;;2.37;1.50;;;17.50;51.70;;;;;;5043653;28;20478;-80
2023/03/04 08:48:01;;;;;;;1.93;1.77;;;17.50;51.70;;;;;;5043518;28;20539;-81
2023/03/04 08:50:29;;;;;;;5.33;1.80;;;17.60;51.50;;;;;;5045088;28;20518;-81
2023/03/04 08:52:58;;;;;;;2.03;1.57;;;17.60;51.60;;;;;;5041504;28;20455;-80
2023/03/04 08:55:27;;;;;;;2.70;1.63;;;17.70;51.50;;;;;;5042042;28;20471;-80
2023/03/04 08:57:54;;;;;;;2.60;1.60;;;17.70;51.40;;;;;;5044750;28;20455;-81
2023/03/04 09:00:24;;;;;;;2.83;1.70;;;17.80;51.40;;;;;;5045942;28;20457;-80
2023/03/04 09:02:52;;;;;;;2.17;1.53;;;17.90;51.40;;;;;;5042854;28;20521;-79
2023/03/04 09:05:20;;;;;;;5.63;1.80;;;17.90;51.20;;;;;;5043379;28;20474;-79
2023/03/04 09:07:48;;;;;;;5.33;1.77;;;17.90;51.10;;;;;;5042407;28;20456;-79
2023/03/04 09:10:17;;;;;;;4.20;1.60;;;17.90;51.10;;;;;;5043449;28;20538;-80
2023/03/04 09:12:45;;;;;;;4.40;1.60;;;17.90;51.10;;;;;;5043396;28;20483;-80
2023/03/04 09:15:13;;;;;;;5.50;1.70;;;18.00;51.40;;;;;;5042292;28;20470;-79
2023/03/04 09:17:43;;;;;;;2.70;1.80;;;18.00;51.20;;;;;;5043055;28;20545;-79
2023/03/04 09:20:12;;;;;;;4.20;1.70;;;18.00;51.30;;;;;;5042987;28;20455;-80
2023/03/04 09:22:41;;;;;;;5.13;1.63;;;18.10;51.60;;;;;;5041702;28;20505;-80
2023/03/04 09:25:10;;;;;;;4.53;1.37;;;18.10;51.10;;;;;;5047211;28;20471;-79
2023/03/04 09:27:40;;;;;;;4.13;1.47;;;18.10;51.10;;;;;;5043293;28;20509;-79
2023/03/04 09:30:09;;;;;;;3.73;1.53;;;18.10;51.00;;;;;;5037625;28;20455;-79
2023/03/04 09:32:37;;;;;;;2.57;1.40;;;18.10;51.30;;;;;;5039861;28;20458;-79
2023/03/04 09:35:07;;;;;;;4.80;1.50;;;18.10;51.10;;;;;;5037887;28;20473;-79
2023/03/04 09:37:34;;;;;;;4.10;1.70;;;18.10;51.40;;;;;;5040017;28;20450;-78
2023/03/04 09:40:03;;;;;;;1.43;1.30;;;18.30;51.50;;;;;;5045527;28;20451;-77
2023/03/04 09:42:35;;;;;;;1.80;1.40;;;18.50;51.30;;;;;;5044580;28;20879;-79
2023/03/04 09:45:04;;;;;;;3.50;1.43;;;18.70;51.20;;;;;;5040495;28;20482;-78
2023/03/04 09:47:31;;;;;;;3.87;1.40;;;18.80;51.10;;;;;;5048462;28;20451;-79
2023/03/04 09:50:00;;;;;;;2.73;1.63;;;18.90;51.00;;;;;;5034677;28;20452;-80
2023/03/04 09:52:38;;;;;;;1.90;1.17;;;18.80;51.00;;;;;;5048516;28;20465;-80
2023/03/04 09:55:12;;;;;;;3.77;1.60;;;18.80;50.90;;;;;;5046476;28;20470;-80
2023/03/04 09:57:45;;;;;;;3.10;1.47;;;18.70;50.90;;;;;;5040714;28;20476;-79
2023/03/04 10:00:18;;;;;;;3.07;1.83;;;18.70;51.60;;;;;;5043471;28;20455;-79
2023/03/04 10:03:04;;;;;;;5.30;1.60;;;18.70;50.90;;;;;;5041503;28;20462;-79
2023/03/04 10:05:33;;;;;;;4.20;1.50;;;18.60;50.90;;;;;;5037096;28;21005;-80
2023/03/04 10:08:06;;;;;;;2.83;2.40;;;18.60;50.80;;;;;;5041075;28;20491;-80
2023/03/04 10:10:36;;;;;;;6.53;1.93;;;18.60;50.90;;;;;;5036416;28;20455;-80
2023/03/04 10:13:05;;;;;;;3.00;1.93;;;18.50;50.80;;;;;;5042210;28;20466;-79
2023/03/04 10:15:35;;;;;;;5.27;2.10;;;18.50;51.00;;;;;;5040866;28;20474;-79
2023/03/04 10:18:07;;;;;;;4.50;2.33;;;18.50;51.00;;;;;;5041270;28;20558;-80
2023/03/04 10:20:44;;;;;;;5.60;2.67;;;18.50;51.20;;;;;;5035865;28;20455;-80
2023/03/04 10:23:16;;;;;;;1.87;1.67;;;18.60;51.10;;;;;;5034915;28;20446;-78
2023/03/04 10:25:45;;;;;;;7.37;2.80;;;18.70;51.20;;;;;;5036541;28;20489;-79
2023/03/04 10:28:15;;;;;;;2.40;1.70;;;18.80;50.80;;;;;;5038534;28;20447;-78
2023/03/04 10:30:48;;;;;;;4.60;2.10;;;18.90;50.70;;;;;;5039004;28;20450;-79
2023/03/04 10:33:17;;;;;;;2.93;1.80;;;19.10;50.60;;;;;;5043568;28;20454;-79
2023/03/04 10:35:46;;;;;;;4.83;2.50;;;19.20;50.60;;;;;;5046302;28;20470;-80
2023/03/04 10:38:16;;;;;;;6.70;2.23;;;19.30;50.40;;;;;;5041349;28;20454;-80
2023/03/04 10:40:44;;;;;;;7.50;2.40;;;19.40;50.20;;;;;;5038192;28;20482;-80
2023/03/04 10:43:16;;;;;;;4.57;2.37;;;19.40;50.10;;;;;;5039125;28;20459;-79
2023/03/04 10:45:45;;;;;;;3.30;2.30;;;19.40;50.10;;;;;;5037754;28;20486;-79
2023/03/04 10:48:21;;;;;;;6.73;2.70;;;19.50;50.20;;;;;;5042804;28;20464;-80
2023/03/04 10:50:48;;;;;;;2.40;1.87;;;19.60;50.50;;;;;;5040169;28;20446;-79
2023/03/04 10:53:29;;;;;;;3.80;2.40;;;19.80;50.00;;;;;;5046267;28;20443;-80
2023/03/04 10:56:06;;;;;;;2.57;2.00;;;19.90;49.70;;;;;;5043570;28;20451;-79
2023/03/04 10:58:34;;;;;;;5.57;2.50;;;19.90;49.50;;;;;;5039907;28;20459;-79
2023/03/04 11:01:03;;;;;;;4.33;2.67;;;19.80;49.50;;;;;;5043152;28;20477;-79
2023/03/04 11:03:34;;;;;;;7.57;2.83;;;19.70;49.40;;;;;;5048666;28;20481;-80
2023/03/04 11:06:18;;;;;;;4.90;2.60;;;19.50;49.50;;;;;;5045819;28;20471;-79
2023/03/04 11:08:55;;;;;;;3.33;2.13;;;19.40;49.80;;;;;;5043179;28;20506;-79
2023/03/04 11:11:24;;;;;;;5.50;2.50;;;19.40;50.00;;;;;;5045494;28;20477;-78
2023/03/04 11:13:53;;;;;;;4.00;2.43;;;19.40;49.90;;;;;;5043579;28;20493;-79
2023/03/04 11:16:25;;;;;;;4.30;2.80;;;19.40;50.10;;;;;;5040029;28;20457;-80
2023/03/04 11:18:54;;;;;;;6.67;2.63;;;19.80;50.10;;;;;;5038597;28;20459;-80
2023/03/04 11:21:23;;;;;;;4.27;2.47;;;20.20;49.80;;;;;;5042540;28;20462;-80
2023/03/04 11:23:53;;;;;;;6.23;2.73;;;20.40;49.10;;;;;;5039546;28;20478;-80
2023/03/04 11:26:23;;;;;;;6.90;2.80;;;20.60;49.00;;;;;;5044432;28;20467;-79
2023/03/04 11:28:52;;;;;;;5.10;2.60;;;20.70;48.60;;;;;;5043456;28;20515;-81
2023/03/04 11:31:21;;;;;;;4.60;2.77;;;20.50;48.40;;;;;;5047150;28;20462;-80
2023/03/04 11:33:51;;;;;;;6.30;2.63;;;20.40;48.60;;;;;;5045770;28;20455;-80
2023/03/04 11:36:27;;;;;;;3.43;2.63;;;20.50;49.60;;;;;;5046595;28;20462;-81
2023/03/04 11:38:56;;;;;;;4.23;2.80;;;20.90;48.70;;;;;;5042876;28;20498;-80
2023/03/04 11:41:27;;;;;;;5.17;2.83;;;21.20;48.40;;;;;;5040361;28;20558;-79
2023/03/04 11:43:55;;;;;;;5.13;3.00;;;21.20;47.80;;;;;;5037795;28;20471;-78
2023/03/04 11:46:59;;;;;;;4.33;2.53;;;21.30;47.80;;;;;;5046788;28;20471;-80
2023/03/04 11:49:57;;;;;;;5.10;2.73;;;21.20;47.50;;;;;;5039874;28;20421;-79
2023/03/04 11:52:33;;;;;;;7.20;2.67;;;21.20;48.00;;;;;;5048013;28;20420;-81
2023/03/04 11:55:12;;;;;;;4.63;2.73;;;21.20;47.70;;;;;;5044255;28;20474;-80
2023/03/04 11:57:44;;;;;;;4.00;2.50;;;21.10;47.60;;;;;;5042878;28;20471;-80
2023/03/04 12:00:28;;;;;;;4.47;2.67;;;21.00;48.00;;;;;;5046587;28;20471;-79
2023/03/04 12:03:07;;;;;;;4.90;2.83;;;21.00;48.10;;;;;;5047153;28;20458;-79
2023/03/04 12:05:41;;;;;;;4.73;2.63;;;21.30;48.40;;;;;;5046405;28;20480;-79
2023/03/04 12:08:22;;;;;;;4.80;2.70;;;21.80;47.20;;;;;;5047490;28;20462;-80
2023/03/04 12:10:56;;;;;;;5.80;3.10;;;21.60;46.80;;;;;;5047217;28;20452;-79
2023/03/04 12:13:48;;;;;;;7.03;2.97;;;21.40;47.00;;;;;;5046393;28;20461;-79
2023/03/04 12:16:21;;;;;;;4.90;3.00;;;21.10;47.40;;;;;;5035242;28;20459;-80
2023/03/04 12:18:57;;;;;;;6.50;3.10;;;20.90;47.60;;;;;;5052180;28;20493;-80
2023/03/04 12:21:34;;;;;;;4.20;2.50;;;20.70;47.80;;;;;;5051431;28;20458;-81
2023/03/04 12:24:26;;;;;;;3.97;2.90;;;20.50;48.00;;;;;;5041911;28;20482;-79
2023/03/04 12:26:57;;;;;;;5.90;3.30;;;20.40;48.20;;;;;;5039036;28;20485;-79
2023/03/04 12:29:29;;;;;;;5.33;3.23;;;20.30;48.20;;;;;;5045752;28;20453;-80
2023/03/04 12:31:59;;;;;;;5.87;3.30;;;20.30;48.60;;;;;;5044977;28;20446;-80
2023/03/04 12:34:44;;;;;;;4.13;2.67;;;20.30;48.60;;;;;;5050920;28;20549;-80
2023/03/04 12:37:45;;;;;;;7.10;3.20;;;20.50;48.50;;;;;;5045588;28;20454;-81
2023/03/04 12:40:25;;;;;;;7.53;3.73;;;20.60;48.30;;;;;;5041803;28;20447;-80
2023/03/04 12:43:08;;;;;;;6.77;3.13;;;21.00;48.80;;;;;;5050963;28;20474;-79
2023/03/04 12:45:43;;;;;;;5.53;3.30;;;21.20;47.50;;;;;;5047782;28;20483;-81
2023/03/04 12:48:17;;;;;;;4.83;3.40;;;21.20;47.30;;;;;;5049778;28;20441;-79
2023/03/04 12:50:51;;;;;;;7.50;3.17;;;21.30;47.50;;;;;;5047166;28;20423;-80
2023/03/04 12:53:23;;;;;;;6.67;3.40;;;21.40;47.30;;;;;;5036103;28;20443;-79
2023/03/04 12:55:50;;;;;;;6.53;3.50;;;21.40;47.00;;;;;;5037522;28;20483;-79
2023/03/04 12:58:21;;;;;;;6.90;3.20;;;21.30;47.00;;;;;;5053095;28;20500;-78